Time;durP1;ratioP1;P1;durP2;ratioP2;P2;SDS_P1;SDS_P2;PMS_P1;PMS_P2;Temp;Humidity;BMP_temperature;BMP_pressure;BME280_temperature;BME280_humidity;BME280_pressure;Samples;Min_cycle;Max_cycle;Signal;HPM_P1;HPM_P2
2023/08/19 00:01:05;;;;;;;11.95;8.82;;;23.40;99.90;;;;;;6220711;23;20020;-84
2023/08/19 00:03:33;;;;;;;10.57;9.30;;;23.30;99.90;;;;;;6219957;23;20054;-83
2023/08/19 00:06:06;;;;;;;14.02;8.85;;;23.30;99.90;;;;;;6221240;23;20020;-83
2023/08/19 00:08:33;;;;;;;13.20;9.43;;;23.30;99.90;;;;;;6218807;23;20075;-84
2023/08/19 00:11:01;;;;;;;14.35;9.52;;;23.30;99.90;;;;;;6221114;23;20028;-84
2023/08/19 00:13:30;;;;;;;12.10;9.32;;;23.30;99.90;;;;;;6220799;23;20089;-84
2023/08/19 00:15:57;;;;;;;11.77;9.25;;;23.30;99.90;;;;;;6197057;23;20451;-84
2023/08/19 00:18:24;;;;;;;14.73;9.38;;;23.30;99.90;;;;;;6221498;23;20494;-84
2023/08/19 00:20:51;;;;;;;12.55;9.55;;;23.30;99.90;;;;;;6222120;23;20040;-84
2023/08/19 00:23:24;;;;;;;13.30;9.73;;;23.20;99.90;;;;;;6221612;23;20094;-83
2023/08/19 00:25:51;;;;;;;12.93;9.55;;;23.20;99.90;;;;;;6222088;23;20020;-84
2023/08/19 00:28:18;;;;;;;12.73;9.13;;;23.20;99.90;;;;;;6222427;23;20019;-84
2023/08/19 00:30:46;;;;;;;12.93;9.32;;;23.10;99.90;;;;;;6221712;23;20035;-84
2023/08/19 00:33:13;;;;;;;12.80;10.43;;;23.10;99.90;;;;;;6221966;23;20034;-84
2023/08/19 00:35:42;;;;;;;10.75;9.10;;;23.10;99.90;;;;;;6221213;23;20020;-83
2023/08/19 00:38:09;;;;;;;12.95;9.43;;;23.10;99.90;;;;;;6221474;23;20020;-84
2023/08/19 00:40:36;;;;;;;13.25;10.00;;;23.00;99.90;;;;;;6247526;23;20415;-84
2023/08/19 00:43:05;;;;;;;12.10;9.15;;;23.10;99.90;;;;;;6221736;23;20024;-81
2023/08/19 00:45:32;;;;;;;13.50;9.63;;;23.00;99.90;;;;;;6221619;23;20012;-83
2023/08/19 00:47:59;;;;;;;11.90;9.75;;;23.00;99.90;;;;;;6222110;23;20016;-83
2023/08/19 00:50:28;;;;;;;16.25;10.15;;;23.00;99.90;;;;;;6221627;23;20031;-83
2023/08/19 00:52:56;;;;;;;12.98;9.32;;;23.10;99.90;;;;;;6221724;23;20347;-84
2023/08/19 00:55:23;;;;;;;13.65;10.00;;;23.00;99.90;;;;;;6196522;23;20531;-82
2023/08/19 00:57:53;;;;;;;13.63;9.90;;;22.90;99.90;;;;;;6220718;23;20024;-83
2023/08/19 01:00:20;;;;;;;12.80;9.13;;;22.80;99.90;;;;;;6221336;23;20020;-83
2023/08/19 01:02:47;;;;;;;15.15;9.30;;;22.90;99.90;;;;;;6245616;23;20024;-83
2023/08/19 01:05:15;;;;;;;13.25;9.98;;;22.80;99.90;;;;;;6221113;23;20020;-83
2023/08/19 01:07:50;;;;;;;13.07;9.13;;;22.90;99.90;;;;;;6222473;23;20024;-83
2023/08/19 01:18:10;;;;;;;12.77;9.30;;;22.80;99.90;;;;;;6244672;22;20028;-83
2023/08/19 01:20:39;;;;;;;14.43;9.18;;;22.90;99.90;;;;;;6222274;23;20496;-84
2023/08/19 01:23:14;;;;;;;13.88;9.27;;;22.80;99.90;;;;;;6196113;23;20027;-84
2023/08/19 01:25:45;;;;;;;14.02;9.75;;;22.90;99.90;;;;;;6220771;23;20024;-84
2023/08/19 01:28:13;;;;;;;11.60;9.18;;;22.80;99.90;;;;;;6220215;23;20046;-83
2023/08/19 01:30:41;;;;;;;13.68;9.20;;;22.80;99.90;;;;;;6220968;23;20057;-84
2023/08/19 01:33:08;;;;;;;10.15;8.52;;;22.80;99.90;;;;;;6220979;23;20478;-85
2023/08/19 01:35:39;;;;;;;12.02;9.27;;;22.90;99.90;;;;;;6196537;23;20028;-84
2023/08/19 01:38:11;;;;;;;13.18;9.00;;;22.80;99.90;;;;;;6221405;23;20074;-84
2023/08/19 01:40:40;;;;;;;11.70;8.48;;;22.90;99.90;;;;;;6221642;23;20066;-84
2023/08/19 01:43:11;;;;;;;14.27;9.32;;;22.80;99.90;;;;;;6220270;23;20042;-84
2023/08/19 01:45:40;;;;;;;11.88;8.95;;;22.80;99.90;;;;;;6221906;23;20020;-84
2023/08/19 01:48:07;;;;;;;11.85;8.25;;;22.80;99.90;;;;;;6222032;23;20074;-84
2023/08/19 01:50:34;;;;;;;11.90;8.18;;;22.80;99.90;;;;;;6196337;23;20024;-84
2023/08/19 01:53:02;;;;;;;13.07;9.60;;;22.80;99.90;;;;;;6195857;23;20027;-84
2023/08/19 01:55:29;;;;;;;12.68;8.95;;;22.70;99.90;;;;;;6196219;23;20024;-84
2023/08/19 01:57:56;;;;;;;11.50;8.85;;;22.70;99.90;;;;;;6220290;23;20106;-83
2023/08/19 02:00:23;;;;;;;12.82;8.43;;;22.70;99.90;;;;;;6195592;23;20107;-84
2023/08/19 02:02:50;;;;;;;12.52;9.35;;;22.70;99.90;;;;;;6221258;23;20028;-84
2023/08/19 02:05:17;;;;;;;11.20;8.52;;;22.70;99.90;;;;;;6196657;23;20016;-84
2023/08/19 02:07:45;;;;;;;12.93;9.07;;;22.60;99.90;;;;;;6196183;23;20024;-83
2023/08/19 02:10:12;;;;;;;11.18;8.80;;;22.60;99.90;;;;;;6195537;23;20034;-83
2023/08/19 02:12:39;;;;;;;13.85;9.25;;;22.60;99.90;;;;;;6195614;23;20399;-84
2023/08/19 02:22:38;;;;;;;12.57;8.82;;;22.60;99.90;;;;;;6243438;22;20158;-84
2023/08/19 05:23:23;;;;;;;10.98;8.60;;;22.70;99.90;;;;;;6241383;22;20027;-83
2023/08/19 05:25:53;;;;;;;12.65;9.25;;;22.80;99.90;;;;;;6220086;23;20066;-84
2023/08/19 05:28:20;;;;;;;11.85;8.73;;;22.80;99.90;;;;;;6220271;23;20362;-84
2023/08/19 05:30:47;;;;;;;9.75;8.18;;;22.80;99.90;;;;;;6193568;23;20107;-84
2023/08/19 05:33:15;;;;;;;10.82;8.23;;;22.80;99.90;;;;;;6193299;23;20020;-85
2023/08/19 05:35:42;;;;;;;9.13;7.50;;;22.90;99.90;;;;;;6221399;23;20016;-84
2023/08/19 05:38:09;;;;;;;9.55;7.35;;;23.00;99.90;;;;;;6196435;23;20024;-83
2023/08/19 05:40:36;;;;;;;9.98;8.15;;;22.90;99.90;;;;;;6194919;23;20085;-83
2023/08/19 05:43:03;;;;;;;11.43;9.20;;;22.90;99.90;;;;;;6220819;23;20024;-85
2023/08/19 05:45:34;;;;;;;11.05;8.15;;;22.80;99.90;;;;;;6195873;23;20027;-81
2023/08/19 05:48:01;;;;;;;12.40;9.27;;;22.80;99.90;;;;;;6195046;23;20084;-80
2023/08/19 05:50:29;;;;;;;13.43;9.38;;;22.80;99.90;;;;;;6194214;23;20083;-82
2023/08/19 05:52:56;;;;;;;11.60;8.73;;;22.70;99.90;;;;;;6219582;23;20032;-83
2023/08/19 05:55:25;;;;;;;11.65;9.40;;;22.80;99.90;;;;;;6196687;23;20016;-84
2023/08/19 05:57:52;;;;;;;11.48;8.52;;;22.80;99.90;;;;;;6196318;23;20360;-82
2023/08/19 06:00:22;;;;;;;11.05;9.05;;;22.80;99.90;;;;;;6247867;23;20020;-85
2023/08/19 06:02:49;;;;;;;11.38;9.05;;;22.70;99.90;;;;;;6195106;23;20383;-82
2023/08/19 06:05:16;;;;;;;13.82;9.75;;;22.70;99.90;;;;;;6219432;23;20019;-81
2023/08/19 06:07:43;;;;;;;14.45;9.68;;;22.70;99.90;;;;;;6195193;23;20021;-81
2023/08/19 06:10:11;;;;;;;14.48;9.90;;;22.70;99.90;;;;;;6193931;23;20016;-83
2023/08/19 06:12:38;;;;;;;10.55;8.68;;;22.70;99.90;;;;;;6193707;23;20035;-82
2023/08/19 06:15:05;;;;;;;12.35;9.32;;;22.70;99.90;;;;;;6219635;23;20024;-82
2023/08/19 06:17:32;;;;;;;12.52;9.38;;;22.60;99.90;;;;;;6219499;23;20027;-81
2023/08/19 06:20:02;;;;;;;9.30;6.88;;;22.60;99.90;;;;;;6194253;23;20083;-81
2023/08/19 06:22:30;;;;;;;8.07;4.90;;;22.40;99.90;;;;;;6194523;23;20044;-83
2023/08/19 06:24:59;;;;;;;7.00;4.47;;;22.30;99.90;;;;;;6193221;23;20171;-83
2023/08/19 06:27:32;;;;;;;7.35;4.60;;;22.20;99.90;;;;;;6194585;23;20020;-83
2023/08/19 06:30:01;;;;;;;7.35;4.40;;;22.00;99.90;;;;;;6192897;23;20452;-85
2023/08/19 06:32:30;;;;;;;8.73;4.85;;;22.00;99.90;;;;;;6191939;23;20020;-79
2023/08/19 06:34:58;;;;;;;12.73;5.97;;;21.80;99.90;;;;;;6187595;23;20032;-75
2023/08/19 06:37:29;;;;;;;11.15;5.60;;;21.70;99.90;;;;;;6212907;23;20114;-75
2023/08/19 06:40:01;;;;;;;11.77;5.20;;;21.60;99.90;;;;;;6213498;23;20019;-75
2023/08/19 06:42:29;;;;;;;9.98;5.00;;;21.60;99.90;;;;;;6215947;23;20797;-76
2023/08/19 06:44:59;;;;;;;16.70;5.97;;;21.60;99.90;;;;;;6212525;23;20090;-75
2023/08/19 06:47:30;;;;;;;7.78;4.82;;;21.60;99.90;;;;;;6213843;23;20400;-75
2023/08/19 06:49:58;;;;;;;10.82;4.72;;;21.60;99.90;;;;;;6212342;23;20055;-76
2023/08/19 06:52:25;;;;;;;8.55;4.80;;;21.60;99.90;;;;;;6212709;23;20095;-77
2023/08/19 06:54:53;;;;;;;11.10;4.93;;;21.60;99.90;;;;;;6209712;23;20523;-77
2023/08/19 06:57:35;;;;;;;11.48;4.80;;;21.60;99.90;;;;;;6215650;23;20051;-77
2023/08/19 07:00:11;;;;;;;7.00;4.60;;;21.70;99.90;;;;;;6216245;23;20020;-77
2023/08/19 07:02:38;;;;;;;9.48;4.53;;;21.60;99.90;;;;;;6207095;22;20024;-78
2023/08/19 07:05:13;;;;;;;11.02;5.07;;;21.70;99.90;;;;;;6246417;22;20908;-78
2023/08/19 07:07:46;;;;;;;9.65;5.22;;;21.70;99.90;;;;;;6272316;22;20016;-79
2023/08/19 07:10:19;;;;;;;10.68;5.70;;;21.60;99.90;;;;;;6212663;22;20352;-78
2023/08/19 07:12:46;;;;;;;9.82;5.45;;;21.50;99.90;;;;;;6244641;22;20020;-78
2023/08/19 07:15:14;;;;;;;10.50;5.70;;;21.40;99.90;;;;;;6246309;22;20406;-78
2023/08/19 07:17:46;;;;;;;9.70;4.88;;;21.30;99.90;;;;;;6241034;22;20414;-78
2023/08/19 07:20:18;;;;;;;9.27;5.57;;;21.40;99.90;;;;;;6240203;22;20054;-78
2023/08/19 07:22:48;;;;;;;8.88;6.28;;;21.40;99.90;;;;;;6244511;22;20098;-78
2023/08/19 07:25:15;;;;;;;11.02;5.68;;;21.40;99.90;;;;;;6245300;22;20050;-78
2023/08/19 07:27:43;;;;;;;13.18;5.97;;;21.40;99.90;;;;;;6245956;22;20019;-78
2023/08/19 07:30:12;;;;;;;10.18;5.32;;;21.50;99.90;;;;;;6221282;22;20012;-78
2023/08/19 07:32:40;;;;;;;12.68;5.32;;;21.50;99.90;;;;;;6240845;22;20020;-78
2023/08/19 07:35:07;;;;;;;9.38;4.85;;;21.50;99.90;;;;;;6245690;22;20023;-78
2023/08/19 07:37:34;;;;;;;10.10;5.32;;;21.40;99.90;;;;;;6242416;22;20688;-79
2023/08/19 07:40:03;;;;;;;10.15;6.47;;;21.40;99.90;;;;;;6245275;22;20019;-78
2023/08/19 07:42:30;;;;;;;9.27;4.90;;;21.40;99.90;;;;;;6221225;22;20062;-78
2023/08/19 07:44:57;;;;;;;11.60;5.15;;;21.40;99.90;;;;;;6245381;22;20023;-78
2023/08/19 07:47:24;;;;;;;9.50;5.40;;;21.40;99.90;;;;;;6244641;22;20023;-78
2023/08/19 07:49:51;;;;;;;10.32;4.93;;;21.40;99.90;;;;;;6216303;22;20016;-79
2023/08/19 07:52:19;;;;;;;8.52;5.13;;;21.40;99.90;;;;;;6245824;22;20039;-78
2023/08/19 07:54:46;;;;;;;7.65;4.63;;;21.30;99.90;;;;;;6220281;22;20078;-78
2023/08/19 07:57:14;;;;;;;8.30;5.22;;;21.20;99.90;;;;;;6246125;22;20781;-78
2023/08/19 07:59:41;;;;;;;9.05;4.97;;;21.10;99.90;;;;;;6271017;22;20505;-78
2023/08/19 08:02:08;;;;;;;8.80;5.25;;;21.10;99.90;;;;;;6245847;22;20070;-78
2023/08/19 08:04:35;;;;;;;8.25;5.22;;;21.10;99.90;;;;;;6244642;22;20513;-78
2023/08/19 08:07:03;;;;;;;8.38;5.93;;;21.10;99.90;;;;;;6219556;22;20633;-77
2023/08/19 08:09:30;;;;;;;8.60;5.32;;;20.90;99.90;;;;;;6216863;22;20022;-78
2023/08/19 08:11:57;;;;;;;9.95;6.60;;;20.80;99.90;;;;;;6242300;22;20757;-77
2023/08/19 08:14:24;;;;;;;11.23;6.03;;;20.80;99.90;;;;;;6244924;22;20114;-77
2023/08/19 08:16:51;;;;;;;9.05;5.32;;;20.90;99.90;;;;;;6245928;22;20069;-77
2023/08/19 08:19:19;;;;;;;9.52;4.97;;;20.90;99.90;;;;;;6218505;22;20032;-77
2023/08/19 08:21:46;;;;;;;8.45;5.22;;;20.90;99.90;;;;;;6246573;22;20020;-77
2023/08/19 08:24:13;;;;;;;11.55;5.47;;;20.90;99.90;;;;;;6221648;22;20793;-77
2023/08/19 08:26:40;;;;;;;9.25;4.68;;;20.90;99.90;;;;;;6247540;22;20630;-77
2023/08/19 08:29:07;;;;;;;10.50;5.43;;;21.00;99.90;;;;;;6220804;22;20026;-77
2023/08/19 08:31:34;;;;;;;9.23;6.03;;;21.10;99.90;;;;;;6245603;22;20114;-77
2023/08/19 08:34:02;;;;;;;10.27;5.63;;;21.10;99.90;;;;;;6247158;22;20023;-77
2023/08/19 08:36:29;;;;;;;9.25;4.95;;;21.00;99.90;;;;;;6224192;22;20028;-78
2023/08/19 08:38:56;;;;;;;8.70;4.97;;;21.00;99.90;;;;;;6248840;22;20020;-77
2023/08/19 08:41:24;;;;;;;10.52;5.57;;;21.00;99.90;;;;;;6247306;22;20065;-78
2023/08/19 08:43:54;;;;;;;11.70;5.32;;;21.10;99.90;;;;;;6248555;22;20352;-78
2023/08/19 08:46:25;;;;;;;8.10;5.93;;;21.10;99.90;;;;;;6248748;22;20016;-77
2023/08/19 08:48:53;;;;;;;10.13;6.07;;;21.10;99.90;;;;;;6247926;22;20020;-77
2023/08/19 08:51:22;;;;;;;10.88;5.70;;;21.10;99.90;;;;;;6247197;22;20027;-77
2023/08/19 08:53:49;;;;;;;8.68;5.18;;;21.10;99.90;;;;;;6220876;22;20027;-76
2023/08/19 08:56:18;;;;;;;8.90;4.88;;;21.10;99.90;;;;;;6247715;22;20028;-78
2023/08/19 08:58:45;;;;;;;12.35;5.57;;;21.00;99.90;;;;;;6274318;22;20862;-77
2023/08/19 09:01:13;;;;;;;8.00;5.68;;;20.90;99.90;;;;;;6221548;22;20046;-78
2023/08/19 09:03:41;;;;;;;10.43;5.28;;;20.90;99.90;;;;;;6248340;22;20015;-78
2023/08/19 09:06:17;;;;;;;7.40;5.10;;;21.00;99.90;;;;;;6274271;22;20128;-78
2023/08/19 09:08:58;;;;;;;7.95;5.18;;;21.00;99.90;;;;;;6275111;22;20011;-76
2023/08/19 09:11:27;;;;;;;8.82;5.50;;;21.10;99.90;;;;;;6246300;22;20020;-77
2023/08/19 09:14:22;;;;;;;8.60;5.30;;;21.00;99.90;;;;;;6247272;22;20078;-76
2023/08/19 09:16:50;;;;;;;8.73;5.50;;;21.20;99.90;;;;;;6243825;22;20019;-78
2023/08/19 09:19:17;;;;;;;9.93;5.18;;;21.20;99.90;;;;;;6269535;22;20046;-77
2023/08/19 09:21:44;;;;;;;7.25;5.40;;;21.30;99.90;;;;;;6245874;22;20107;-78
2023/08/19 09:24:18;;;;;;;9.45;6.25;;;21.30;99.90;;;;;;6222275;22;20078;-77
2023/08/19 09:26:45;;;;;;;8.48;5.85;;;21.40;99.90;;;;;;6244819;22;20018;-77
2023/08/19 09:29:13;;;;;;;9.60;5.80;;;21.40;99.90;;;;;;6244909;22;20048;-77
2023/08/19 09:31:40;;;;;;;10.10;5.93;;;21.40;99.90;;;;;;6245338;22;20031;-77
2023/08/19 09:34:07;;;;;;;8.02;6.05;;;21.40;99.90;;;;;;6219843;22;20406;-77
2023/08/19 09:36:34;;;;;;;10.65;6.53;;;21.40;99.90;;;;;;6219967;22;20051;-77
2023/08/19 09:39:03;;;;;;;10.98;7.28;;;21.50;99.90;;;;;;6220658;22;20077;-76
2023/08/19 09:41:30;;;;;;;11.88;7.55;;;21.40;99.90;;;;;;6220750;22;20012;-77
2023/08/19 09:43:57;;;;;;;11.38;7.22;;;21.40;99.90;;;;;;6246986;22;20011;-77
2023/08/19 09:46:34;;;;;;;10.32;7.28;;;21.50;99.90;;;;;;6246528;22;20106;-77
2023/08/19 09:49:03;;;;;;;13.88;7.22;;;21.50;99.90;;;;;;6246340;22;20435;-77
2023/08/19 09:51:31;;;;;;;10.38;7.20;;;21.60;99.90;;;;;;6246048;22;20023;-77
2023/08/19 09:54:09;;;;;;;15.25;8.48;;;21.60;99.90;;;;;;6273625;22;20051;-77
2023/08/19 09:56:36;;;;;;;12.68;7.45;;;21.70;99.90;;;;;;6246361;22;20114;-77
2023/08/19 09:59:04;;;;;;;11.38;7.13;;;21.60;99.90;;;;;;6246136;22;20020;-77
2023/08/19 10:01:32;;;;;;;13.80;7.70;;;21.70;99.90;;;;;;6245458;22;20530;-77
2023/08/19 10:03:59;;;;;;;11.23;7.57;;;21.80;99.90;;;;;;6246987;22;20402;-76
2023/08/19 10:06:31;;;;;;;12.82;9.20;;;21.90;99.90;;;;;;6220353;22;20020;-76
2023/08/19 10:09:04;;;;;;;11.88;7.38;;;21.90;99.90;;;;;;6246024;22;20779;-76
2023/08/19 10:11:33;;;;;;;10.10;7.15;;;21.90;99.90;;;;;;6271530;22;20048;-76
2023/08/19 10:14:04;;;;;;;11.18;8.30;;;21.90;99.90;;;;;;6245280;22;20099;-76
2023/08/19 10:16:35;;;;;;;13.65;8.15;;;22.00;99.90;;;;;;6246684;22;20015;-76
2023/08/19 10:19:04;;;;;;;11.45;8.65;;;22.00;99.90;;;;;;6245760;22;20016;-77
2023/08/19 10:21:32;;;;;;;10.95;7.90;;;22.10;99.90;;;;;;6272421;22;20016;-75
2023/08/19 10:24:00;;;;;;;12.48;8.00;;;22.20;99.90;;;;;;6245467;22;20034;-76
2023/08/19 10:26:27;;;;;;;10.48;6.97;;;22.20;99.90;;;;;;6221118;22;20054;-75
2023/08/19 10:29:15;;;;;;;14.23;7.40;;;22.30;99.90;;;;;;6246763;22;20012;-76
2023/08/19 10:31:42;;;;;;;10.30;7.40;;;22.40;99.90;;;;;;6245647;22;20027;-76
2023/08/19 10:34:30;;;;;;;10.95;7.78;;;22.40;99.90;;;;;;6247216;22;20443;-76
2023/08/19 10:37:11;;;;;;;11.80;7.45;;;22.50;99.90;;;;;;6220684;22;20107;-76
2023/08/19 10:39:38;;;;;;;9.73;7.10;;;22.60;99.90;;;;;;6232823;22;20820;-75
2023/08/19 10:42:05;;;;;;;10.15;7.40;;;22.70;99.90;;;;;;6244836;22;20019;-76
2023/08/19 10:44:33;;;;;;;10.52;7.38;;;22.80;99.90;;;;;;6270895;22;20012;-77
2023/08/19 10:47:15;;;;;;;8.70;6.97;;;23.00;99.90;;;;;;6273289;22;20090;-76
2023/08/19 10:49:42;;;;;;;11.05;6.80;;;23.20;99.90;;;;;;6246227;22;20094;-77
2023/08/19 10:52:22;;;;;;;10.25;6.75;;;23.40;99.90;;;;;;6246313;22;20031;-76
2023/08/19 10:54:49;;;;;;;8.43;6.78;;;23.50;99.90;;;;;;6221092;22;20051;-78
2023/08/19 10:57:25;;;;;;;9.40;7.00;;;23.70;99.90;;;;;;6245841;22;20640;-78
2023/08/19 11:00:07;;;;;;;8.65;6.72;;;23.80;99.90;;;;;;6221995;22;20344;-78
2023/08/19 11:02:37;;;;;;;9.52;7.13;;;24.00;99.90;;;;;;6273625;22;20054;-79
2023/08/19 11:05:05;;;;;;;10.38;6.40;;;24.10;99.90;;;;;;6245690;22;20016;-76
2023/08/19 11:07:33;;;;;;;11.07;7.00;;;24.10;99.90;;;;;;6272028;22;20078;-79
2023/08/19 11:10:00;;;;;;;8.32;6.35;;;24.20;99.90;;;;;;6247074;22;20097;-80
2023/08/19 11:12:29;;;;;;;7.15;6.05;;;24.20;99.90;;;;;;6245406;22;20022;-79
2023/08/19 11:14:56;;;;;;;7.90;6.32;;;24.30;99.90;;;;;;6222697;22;20451;-80
2023/08/19 11:17:31;;;;;;;7.63;5.70;;;24.30;99.90;;;;;;6249099;22;20027;-80
2023/08/19 11:20:12;;;;;;;8.45;5.57;;;24.40;99.90;;;;;;6275210;22;20659;-79
2023/08/19 11:22:48;;;;;;;7.70;5.57;;;24.50;99.90;;;;;;6248281;22;20455;-80
2023/08/19 11:25:15;;;;;;;8.02;6.05;;;24.60;99.90;;;;;;6247762;22;20506;-79
2023/08/19 11:27:43;;;;;;;6.22;5.22;;;24.60;99.90;;;;;;6244164;22;20024;-80
2023/08/19 11:30:12;;;;;;;6.35;4.90;;;24.50;99.90;;;;;;6215183;22;20023;-78
2023/08/19 11:32:45;;;;;;;6.40;5.18;;;24.50;99.90;;;;;;6245561;22;20143;-81
2023/08/19 11:35:12;;;;;;;6.70;4.57;;;24.40;99.90;;;;;;6245438;22;20092;-78
2023/08/19 11:37:41;;;;;;;5.25;4.47;;;24.50;99.90;;;;;;6232107;22;20043;-80
2023/08/19 11:40:08;;;;;;;6.63;4.85;;;24.40;99.90;;;;;;6245392;22;20023;-80
2023/08/19 11:43:07;;;;;;;8.40;4.90;;;24.50;99.90;;;;;;6224439;22;20016;-80
2023/08/19 11:45:39;;;;;;;7.70;4.65;;;24.60;99.90;;;;;;6243187;22;20022;-80
2023/08/19 11:48:13;;;;;;;6.40;4.68;;;24.70;99.90;;;;;;6247972;22;20051;-81
2023/08/19 11:50:45;;;;;;;7.30;4.75;;;24.80;99.90;;;;;;6222885;22;20058;-80
2023/08/19 11:53:24;;;;;;;6.38;4.90;;;24.80;99.90;;;;;;6244630;22;20032;-80
2023/08/19 11:55:57;;;;;;;6.97;4.38;;;24.80;99.90;;;;;;6244094;22;20020;-79
2023/08/19 11:58:47;;;;;;;7.60;4.70;;;24.80;99.90;;;;;;6218446;22;20043;-80
2023/08/19 12:01:15;;;;;;;5.70;4.65;;;24.80;99.90;;;;;;6247620;22;20639;-80
2023/08/19 12:03:44;;;;;;;5.07;4.03;;;24.80;99.90;;;;;;6246485;22;20027;-81
2023/08/19 12:06:11;;;;;;;5.38;4.15;;;24.90;99.90;;;;;;6247685;22;20020;-81
2023/08/19 12:08:40;;;;;;;5.22;4.07;;;25.00;99.90;;;;;;6247703;22;20054;-81
2023/08/19 12:11:09;;;;;;;5.45;4.47;;;25.30;99.90;;;;;;6249437;22;20687;-81
2023/08/19 12:13:37;;;;;;;5.88;4.47;;;25.40;99.90;;;;;;6247726;22;20066;-81
2023/08/19 12:16:05;;;;;;;7.30;4.47;;;25.30;99.90;;;;;;6249086;22;20026;-81
2023/08/19 12:18:34;;;;;;;5.95;5.00;;;25.30;99.90;;;;;;6250417;22;20011;-80
2023/08/19 12:21:05;;;;;;;6.65;4.55;;;25.30;99.90;;;;;;6225370;22;20035;-81
2023/08/19 12:23:32;;;;;;;5.60;4.30;;;25.30;99.90;;;;;;6224450;22;20073;-81
2023/08/19 12:26:00;;;;;;;7.25;4.63;;;25.40;99.90;;;;;;6246167;22;20031;-81
2023/08/19 12:28:30;;;;;;;6.95;4.22;;;25.40;99.90;;;;;;6248679;22;20019;-81
2023/08/19 12:30:57;;;;;;;8.73;4.70;;;25.40;99.90;;;;;;6250078;22;20440;-80
2023/08/19 12:33:25;;;;;;;7.65;4.57;;;25.50;99.90;;;;;;6250469;22;20049;-80
2023/08/19 12:35:53;;;;;;;6.38;4.68;;;25.50;99.90;;;;;;6221605;22;20857;-80
2023/08/19 12:38:40;;;;;;;5.70;4.53;;;25.50;99.90;;;;;;6275235;22;20026;-80
2023/08/19 12:41:07;;;;;;;6.72;4.80;;;25.60;99.90;;;;;;6249230;22;20026;-80
2023/08/19 12:43:34;;;;;;;4.93;3.92;;;25.70;99.90;;;;;;6249259;22;20035;-80
2023/08/19 12:46:05;;;;;;;5.47;4.95;;;26.00;99.90;;;;;;6223162;22;20051;-80
2023/08/19 12:48:33;;;;;;;7.38;4.63;;;26.00;99.90;;;;;;6219336;22;20039;-79
2023/08/19 12:51:01;;;;;;;6.72;4.32;;;25.90;99.90;;;;;;6245419;22;20050;-80
2023/08/19 12:53:28;;;;;;;6.22;4.43;;;25.90;99.90;;;;;;6220936;22;20043;-79
2023/08/19 12:55:55;;;;;;;6.93;4.80;;;25.90;99.90;;;;;;6244131;22;20015;-80
2023/08/19 12:58:22;;;;;;;10.40;5.03;;;25.90;99.90;;;;;;6249744;22;20069;-80
2023/08/19 13:00:49;;;;;;;6.07;4.40;;;26.00;99.90;;;;;;6225702;22;20751;-80
2023/08/19 13:03:16;;;;;;;5.40;4.03;;;26.00;99.90;;;;;;6220462;22;20027;-81
2023/08/19 13:05:44;;;;;;;6.00;5.28;;;26.00;99.90;;;;;;6224141;22;20810;-80
2023/08/19 13:08:11;;;;;;;6.32;5.28;;;26.00;99.90;;;;;;6219576;22;20051;-80
2023/08/19 13:10:38;;;;;;;6.47;4.78;;;26.10;99.90;;;;;;6223735;22;20026;-80
2023/08/19 13:13:05;;;;;;;7.45;5.78;;;26.20;99.90;;;;;;6247424;22;20117;-80
2023/08/19 13:15:33;;;;;;;7.20;5.00;;;26.30;99.90;;;;;;6248838;22;20077;-80
2023/08/19 13:18:00;;;;;;;5.30;4.28;;;26.30;99.90;;;;;;6248649;22;20023;-80
2023/08/19 13:20:27;;;;;;;6.50;5.25;;;26.40;99.70;;;;;;6223007;22;20481;-80
2023/08/19 13:22:54;;;;;;;6.47;5.07;;;26.30;99.90;;;;;;6220849;22;20048;-81
2023/08/19 13:25:22;;;;;;;5.28;4.63;;;26.30;99.90;;;;;;6251254;22;20024;-80
2023/08/19 13:27:49;;;;;;;6.03;4.88;;;26.30;99.90;;;;;;6250268;22;20027;-80
2023/08/19 13:30:16;;;;;;;7.72;5.32;;;26.40;99.90;;;;;;6249220;22;20020;-80
2023/08/19 13:32:43;;;;;;;11.40;5.20;;;26.40;99.90;;;;;;6246180;22;20046;-81
2023/08/19 13:35:11;;;;;;;5.93;4.43;;;26.40;99.90;;;;;;6241352;22;20051;-80
2023/08/19 13:37:38;;;;;;;6.18;5.28;;;26.40;99.90;;;;;;6223368;22;20039;-80
2023/08/19 13:40:07;;;;;;;5.53;4.47;;;26.50;99.90;;;;;;6249131;22;20020;-80
2023/08/19 13:42:34;;;;;;;6.65;4.93;;;26.50;99.80;;;;;;6248623;22;20560;-80
2023/08/19 13:45:04;;;;;;;6.70;4.88;;;26.50;99.90;;;;;;6221015;22;20016;-79
2023/08/19 13:47:31;;;;;;;6.60;5.25;;;26.50;99.90;;;;;;6249326;22;20015;-79
2023/08/19 13:49:59;;;;;;;6.35;4.72;;;26.60;99.90;;;;;;6224509;22;20106;-80
2023/08/19 13:52:40;;;;;;;6.38;4.68;;;26.60;99.90;;;;;;6222255;22;20050;-79
2023/08/19 13:55:08;;;;;;;7.35;5.60;;;26.60;99.90;;;;;;6248391;22;20458;-80
2023/08/19 13:57:36;;;;;;;6.00;4.45;;;26.60;99.90;;;;;;6220163;22;20028;-80
2023/08/19 14:00:11;;;;;;;5.85;4.65;;;26.60;99.90;;;;;;6249584;22;20026;-79
2023/08/19 14:02:40;;;;;;;5.68;4.93;;;26.70;99.90;;;;;;6248996;22;20073;-79
2023/08/19 14:05:15;;;;;;;7.20;5.25;;;26.70;99.90;;;;;;6249808;22;20078;-79
2023/08/19 14:07:43;;;;;;;6.10;5.50;;;26.70;99.90;;;;;;6275909;22;20015;-80
2023/08/19 14:10:10;;;;;;;6.47;5.22;;;26.70;99.90;;;;;;6217643;22;20023;-80
2023/08/19 14:12:38;;;;;;;9.85;5.82;;;26.70;99.90;;;;;;6249250;22;20027;-80
2023/08/19 14:15:07;;;;;;;6.82;5.43;;;26.70;99.90;;;;;;6250655;22;20016;-80
2023/08/19 14:17:35;;;;;;;6.75;5.40;;;26.70;99.90;;;;;;6250638;22;20023;-80
2023/08/19 14:20:04;;;;;;;8.60;5.82;;;26.70;99.90;;;;;;6250646;22;20024;-80
2023/08/19 14:22:34;;;;;;;6.03;4.80;;;26.60;99.90;;;;;;6249295;22;20106;-80
2023/08/19 14:25:01;;;;;;;6.72;5.30;;;26.60;99.90;;;;;;6249278;22;20367;-80
2023/08/19 14:27:28;;;;;;;7.70;5.53;;;26.70;99.90;;;;;;6246758;22;20025;-80
2023/08/19 14:29:55;;;;;;;5.97;5.38;;;26.70;99.90;;;;;;6220681;22;20023;-80
2023/08/19 14:32:23;;;;;;;6.07;4.88;;;26.60;99.90;;;;;;6222979;22;20114;-80
2023/08/19 14:34:50;;;;;;;6.68;5.03;;;26.70;99.90;;;;;;6223481;22;20053;-80
2023/08/19 14:37:18;;;;;;;6.15;5.55;;;26.70;99.90;;;;;;6249196;22;20031;-82
2023/08/19 14:39:45;;;;;;;5.72;5.13;;;26.70;99.90;;;;;;6248087;22;20050;-80
2023/08/19 14:42:12;;;;;;;7.28;5.35;;;26.60;99.90;;;;;;6224623;22;20111;-79
2023/08/19 14:44:39;;;;;;;6.38;5.40;;;26.60;99.90;;;;;;6245459;22;20482;-80
2023/08/19 14:47:06;;;;;;;6.43;5.55;;;26.60;99.90;;;;;;6247654;22;20046;-79
2023/08/19 14:49:34;;;;;;;6.22;5.63;;;26.60;99.90;;;;;;6273455;22;20073;-80
2023/08/19 14:52:02;;;;;;;7.32;4.75;;;26.60;99.90;;;;;;6223839;22;20746;-81
2023/08/19 14:54:30;;;;;;;7.15;5.82;;;26.60;99.90;;;;;;6244861;22;20024;-80
2023/08/19 14:57:00;;;;;;;5.55;4.88;;;26.70;99.90;;;;;;6249078;22;20485;-83
2023/08/19 14:59:27;;;;;;;7.30;6.10;;;26.60;99.90;;;;;;6249504;22;20020;-81
2023/08/19 15:01:55;;;;;;;6.50;5.30;;;26.60;99.90;;;;;;6242948;22;20016;-81
2023/08/19 15:04:22;;;;;;;5.97;5.38;;;26.70;99.90;;;;;;6221396;22;20015;-80
2023/08/19 15:06:50;;;;;;;5.85;5.22;;;26.60;99.90;;;;;;6248467;22;20332;-80
2023/08/19 15:09:17;;;;;;;5.88;5.00;;;26.60;99.90;;;;;;6249765;22;20024;-80
2023/08/19 15:11:44;;;;;;;5.65;5.05;;;26.60;99.90;;;;;;6222984;22;20102;-80
2023/08/19 15:14:11;;;;;;;5.88;5.25;;;26.60;99.90;;;;;;6247810;22;20023;-80
2023/08/19 15:16:39;;;;;;;6.03;5.43;;;26.50;99.90;;;;;;6248110;22;20023;-80
2023/08/19 15:19:09;;;;;;;5.57;4.97;;;26.60;99.90;;;;;;6222396;22;20016;-80
2023/08/19 15:21:37;;;;;;;6.38;5.30;;;26.60;99.90;;;;;;6223273;22;20058;-80
2023/08/19 15:24:04;;;;;;;6.82;5.55;;;26.60;99.90;;;;;;6247687;22;20335;-79
2023/08/19 15:26:31;;;;;;;6.28;5.43;;;26.60;99.90;;;;;;6248614;22;20034;-79
2023/08/19 15:28:59;;;;;;;7.40;5.35;;;26.60;99.90;;;;;;6223596;22;20012;-80
2023/08/19 15:31:31;;;;;;;6.45;5.40;;;26.50;99.90;;;;;;6249118;22;20690;-80
2023/08/19 15:34:06;;;;;;;6.22;5.45;;;26.50;99.90;;;;;;6249277;22;20030;-81
2023/08/19 15:36:33;;;;;;;8.73;5.43;;;26.50;99.90;;;;;;6223086;22;20078;-80
2023/08/19 15:39:00;;;;;;;7.05;5.45;;;26.50;99.90;;;;;;6222742;22;20024;-80
2023/08/19 15:41:27;;;;;;;6.40;5.68;;;26.50;99.90;;;;;;6223234;22;20024;-80
2023/08/19 15:43:58;;;;;;;6.22;5.43;;;26.40;99.90;;;;;;6223761;22;20027;-80
2023/08/19 15:46:25;;;;;;;7.35;5.75;;;26.40;99.90;;;;;;6225047;22;20102;-80
2023/08/19 15:48:52;;;;;;;6.25;5.35;;;26.50;99.90;;;;;;6251249;22;20035;-79
2023/08/19 15:51:19;;;;;;;6.28;5.68;;;26.40;99.90;;;;;;6250764;22;20016;-80
2023/08/19 15:53:47;;;;;;;6.18;5.28;;;26.40;99.90;;;;;;6251913;22;20035;-80
2023/08/19 15:56:14;;;;;;;7.43;6.00;;;26.40;99.90;;;;;;6251703;22;20019;-80
2023/08/19 15:58:41;;;;;;;6.45;5.30;;;26.40;99.90;;;;;;6252825;22;20016;-79
2023/08/19 16:01:09;;;;;;;8.30;6.65;;;26.40;99.90;;;;;;6247640;22;20066;-80
2023/08/19 16:03:36;;;;;;;8.10;6.72;;;26.40;99.90;;;;;;6250080;22;20042;-79
2023/08/19 16:06:04;;;;;;;7.43;5.80;;;26.40;99.90;;;;;;6277183;22;20012;-79